Time;durP1;ratioP1;P1;durP2;ratioP2;P2;SDS_P1;SDS_P2;PMS_P1;PMS_P2;Temp;Humidity;BMP_temperature;BMP_pressure;BME280_temperature;BME280_humidity;BME280_pressure;Samples;Min_cycle;Max_cycle;Signal;HPM_P1;HPM_P2
2022/11/05 00:10:02;;;;;;;4.50;2.45;;;;;;;6.84;100.00;95523.53;5004842;28;24975;-72
2022/11/05 00:17:57;;;;;;;4.65;2.40;;;;;;;6.82;100.00;95527.09;5000539;28;24436;-71
2022/11/05 00:20:23;;;;;;;3.22;1.70;;;;;;;6.86;100.00;95537.16;5007729;28;24440;-71
2022/11/05 00:25:56;;;;;;;2.20;1.00;;;;;;;7.01;100.00;95531.22;4972165;28;24440;-72
2022/11/05 00:28:23;;;;;;;1.90;1.08;;;;;;;6.98;100.00;95530.53;5001671;28;24444;-71
2022/11/05 00:30:49;;;;;;;1.30;0.90;;;;;;;7.02;100.00;95534.63;5002939;28;24440;-72
2022/11/05 00:33:16;;;;;;;1.50;0.90;;;;;;;6.99;100.00;95534.78;5009978;28;24452;-72
2022/11/05 00:35:42;;;;;;;0.90;0.70;;;;;;;7.00;100.00;95537.25;5009972;28;24432;-72
2022/11/05 00:38:10;;;;;;;0.90;0.50;;;;;;;6.93;100.00;95546.22;5006442;28;24449;-72
2022/11/05 00:40:38;;;;;;;1.23;0.70;;;;;;;6.86;100.00;95544.88;5007957;28;25004;-72
2022/11/05 00:45:48;;;;;;;0.68;0.52;;;;;;;7.01;100.00;95546.66;4999152;28;24432;-72
2022/11/05 00:50:59;;;;;;;1.75;0.60;;;;;;;6.83;100.00;95554.50;5005612;28;24456;-72
2022/11/05 00:53:27;;;;;;;1.60;0.75;;;;;;;6.82;100.00;95551.06;5008412;28;24475;-72
2022/11/05 00:55:53;;;;;;;1.48;1.00;;;;;;;6.82;100.00;95550.25;5004190;28;24480;-72
2022/11/05 00:58:21;;;;;;;1.77;1.43;;;;;;;6.82;100.00;95552.81;5004163;28;25024;-72
2022/11/05 01:00:50;;;;;;;1.30;0.80;;;;;;;6.83;100.00;95562.22;5006425;28;24439;-72
2022/11/05 01:03:19;;;;;;;1.00;0.90;;;;;;;6.84;100.00;95559.56;5006899;28;21304;-72
2022/11/05 01:05:48;;;;;;;2.53;1.05;;;;;;;6.86;100.00;95570.63;5003939;28;20776;-72
2022/11/05 01:08:16;;;;;;;1.30;0.82;;;;;;;6.83;100.00;95563.06;5003518;28;24436;-71
2022/11/05 01:10:46;;;;;;;2.88;1.27;;;;;;;6.77;100.00;95571.09;4999820;28;24436;-71
2022/11/05 01:13:16;;;;;;;4.20;1.20;;;;;;;6.78;100.00;95575.31;5002856;28;24459;-71
2022/11/05 01:15:42;;;;;;;4.70;1.10;;;;;;;6.78;100.00;95577.88;4998528;28;20784;-72
2022/11/05 01:18:09;;;;;;;2.00;0.90;;;;;;;6.72;100.00;95578.22;5004076;28;24428;-72
2022/11/05 01:20:36;;;;;;;9.57;1.30;;;;;;;6.66;100.00;95578.53;4998188;28;25212;-71
2022/11/05 01:23:02;;;;;;;1.25;0.82;;;;;;;6.69;100.00;95578.38;5004964;28;24440;-71
2022/11/05 01:25:29;;;;;;;1.30;0.93;;;;;;;6.73;100.00;95582.44;5000073;28;24436;-72
2022/11/05 01:27:57;;;;;;;1.45;0.75;;;;;;;6.83;100.00;95582.81;5002975;28;24436;-71
2022/11/05 01:30:24;;;;;;;1.00;0.77;;;;;;;6.72;100.00;95579.06;5007227;28;24440;-72
2022/11/05 01:32:50;;;;;;;1.67;0.90;;;;;;;6.76;100.00;95590.84;5006873;28;24436;-72
2022/11/05 01:35:17;;;;;;;1.40;1.02;;;;;;;6.82;100.00;95592.25;4999438;28;24433;-71
2022/11/05 01:37:45;;;;;;;2.30;0.90;;;;;;;6.82;100.00;95594.00;5001364;28;26114;-71
2022/11/05 01:40:13;;;;;;;1.85;1.00;;;;;;;6.82;100.00;95588.88;5004910;28;24436;-71
2022/11/05 01:42:40;;;;;;;1.13;0.97;;;;;;;6.83;100.00;95596.53;4999330;28;24447;-72
2022/11/05 01:45:14;;;;;;;0.80;0.80;;;;;;;6.83;100.00;95595.69;5001920;28;24439;-72
2022/11/05 01:47:57;;;;;;;1.05;0.80;;;;;;;6.81;100.00;95590.59;4997634;28;24447;-72
2022/11/05 01:50:30;;;;;;;1.10;0.80;;;;;;;6.84;100.00;95590.47;5008758;28;24451;-72
2022/11/05 01:53:02;;;;;;;0.88;0.80;;;;;;;6.82;100.00;95589.69;5004852;28;24439;-71
2022/11/05 01:55:33;;;;;;;1.15;0.90;;;;;;;6.81;100.00;95593.19;5003720;28;24808;-72
2022/11/05 01:58:03;;;;;;;0.90;0.70;;;;;;;6.86;100.00;95593.81;5005493;28;24447;-70
2022/11/05 02:00:31;;;;;;;2.63;1.10;;;;;;;6.83;100.00;95596.53;5002609;28;24445;-71
2022/11/05 02:02:57;;;;;;;1.75;0.80;;;;;;;6.87;100.00;95592.06;5004600;28;24482;-72
2022/11/05 02:05:24;;;;;;;1.80;1.23;;;;;;;6.82;100.00;95594.84;5007882;28;24450;-71
2022/11/05 02:07:52;;;;;;;4.83;3.53;;;;;;;6.83;100.00;95595.69;5006007;28;24520;-72
2022/11/05 02:10:18;;;;;;;5.95;4.47;;;;;;;6.82;100.00;95601.72;5005190;28;24432;-72
2022/11/05 02:12:47;;;;;;;6.15;3.33;;;;;;;6.81;100.00;95600.91;5003071;28;24519;-72
2022/11/05 02:15:18;;;;;;;1.30;1.20;;;;;;;6.81;100.00;95602.66;4996263;28;24998;-72
2022/11/05 02:17:55;;;;;;;1.70;1.10;;;;;;;6.85;100.00;95601.59;5002842;28;24445;-72
2022/11/05 02:20:33;;;;;;;2.65;2.33;;;;;;;6.82;100.00;95602.56;5006203;28;24546;-72
2022/11/05 02:23:31;;;;;;;3.38;2.28;;;;;;;6.80;100.00;95606.97;5007282;28;24425;-72
2022/11/05 02:26:24;;;;;;;1.00;0.88;;;;;;;6.76;100.00;95618.34;4999364;28;24433;-71
2022/11/05 02:29:17;;;;;;;1.50;1.20;;;;;;;6.86;100.00;95611.81;5002551;28;24433;-71
2022/11/05 02:31:52;;;;;;;1.58;1.40;;;;;;;6.90;100.00;95610.75;4962550;28;24447;-72
2022/11/05 02:34:27;;;;;;;1.15;0.93;;;;;;;6.95;100.00;95607.94;4998640;28;24457;-72
2022/11/05 02:37:01;;;;;;;2.15;0.73;;;;;;;7.00;100.00;95611.09;5002645;28;24448;-72
2022/11/05 02:39:39;;;;;;;1.23;0.90;;;;;;;7.00;100.00;95613.66;5007568;28;24436;-72
2022/11/05 02:42:13;;;;;;;2.13;1.05;;;;;;;7.07;100.00;95607.28;5005331;28;24445;-72
2022/11/05 02:44:47;;;;;;;1.38;1.13;;;;;;;7.09;100.00;95612.38;4999859;28;20778;-72
2022/11/05 02:47:24;;;;;;;1.20;1.00;;;;;;;7.07;100.00;95614.19;5004831;28;24433;-72
2022/11/05 02:49:57;;;;;;;2.22;1.00;;;;;;;7.08;100.00;95613.28;5005773;28;24445;-72
2022/11/05 02:52:32;;;;;;;1.58;1.20;;;;;;;7.12;100.00;95613.06;4997336;28;25068;-72
2022/11/05 02:55:05;;;;;;;1.52;1.40;;;;;;;7.19;100.00;95617.00;5007961;28;24456;-71
2022/11/05 02:57:35;;;;;;;1.85;1.10;;;;;;;7.07;100.00;95612.44;4999520;28;24438;-71
2022/11/05 03:00:04;;;;;;;1.70;1.27;;;;;;;6.96;100.00;95614.75;5009201;28;24451;-71
2022/11/05 03:02:32;;;;;;;1.17;1.00;;;;;;;6.97;100.00;95614.69;5004440;28;24763;-71
2022/11/05 03:04:59;;;;;;;1.60;0.98;;;;;;;7.02;100.00;95617.00;5001793;28;25024;-71
2022/11/05 03:07:40;;;;;;;1.48;1.00;;;;;;;7.01;100.00;95605.06;4994956;28;24433;-71
2022/11/05 03:10:18;;;;;;;1.30;1.00;;;;;;;7.01;100.00;95616.19;5005032;28;20774;-71
2022/11/05 03:12:56;;;;;;;1.00;0.90;;;;;;;7.07;100.00;95624.50;5005933;28;20753;-71
2022/11/05 03:15:36;;;;;;;0.88;0.80;;;;;;;7.13;100.00;95629.34;5000719;28;24517;-71
2022/11/05 03:18:11;;;;;;;1.53;1.00;;;;;;;7.16;100.00;95632.59;5006669;28;24814;-71
2022/11/05 03:20:43;;;;;;;1.73;1.27;;;;;;;7.13;100.00;95637.06;5002016;28;24428;-71
2022/11/05 03:23:18;;;;;;;1.00;0.90;;;;;;;7.14;100.00;95636.16;5004505;28;24433;-71
2022/11/05 03:25:51;;;;;;;0.80;0.80;;;;;;;7.16;100.00;95631.75;4997871;28;25020;-72
2022/11/05 03:28:22;;;;;;;0.80;0.80;;;;;;;7.17;100.00;95634.25;5010982;28;25009;-71
2022/11/05 03:30:52;;;;;;;1.17;1.00;;;;;;;7.09;100.00;95638.13;5010756;28;24444;-71
2022/11/05 03:33:24;;;;;;;0.90;0.75;;;;;;;6.88;100.00;95648.59;5006337;28;25053;-71
2022/11/05 03:35:54;;;;;;;2.97;1.00;;;;;;;6.83;100.00;95647.19;5006637;28;24847;-71
2022/11/05 03:38:25;;;;;;;1.20;1.07;;;;;;;6.80;100.00;95658.44;5009381;28;21495;-71
2022/11/05 03:40:55;;;;;;;1.83;1.00;;;;;;;6.85;100.00;95651.31;5003842;28;21041;-72
2022/11/05 03:43:24;;;;;;;4.60;0.83;;;;;;;6.81;100.00;95651.56;5003226;28;24443;-72
2022/11/05 03:45:57;;;;;;;1.25;0.93;;;;;;;6.79;100.00;95657.63;5003115;28;24439;-72
2022/11/05 03:48:29;;;;;;;1.60;0.85;;;;;;;6.73;100.00;95660.50;5001762;28;20733;-72
2022/11/05 03:51:00;;;;;;;0.77;0.77;;;;;;;6.62;100.00;95665.34;5010615;28;24455;-71
2022/11/05 03:53:30;;;;;;;1.50;0.80;;;;;;;6.59;100.00;95662.91;5001138;28;24436;-72
2022/11/05 03:56:02;;;;;;;1.38;0.90;;;;;;;6.60;100.00;95669.75;5007278;28;24811;-72
2022/11/05 03:58:30;;;;;;;1.00;0.90;;;;;;;6.69;100.00;95669.28;5002922;28;24445;-72
2022/11/05 04:00:59;;;;;;;2.90;0.90;;;;;;;6.72;100.00;95676.84;5008929;28;24432;-71
2022/11/05 04:03:27;;;;;;;2.65;1.10;;;;;;;6.84;100.00;95685.69;5004020;28;25016;-71
2022/11/05 04:14:04;;;;;;;0.60;0.50;;;;;;;6.95;100.00;95696.31;5002463;28;24527;-71
2022/11/05 04:24:07;;;;;;;1.00;0.70;;;;;;;6.93;100.00;95697.28;5009965;28;24784;-71
2022/11/05 04:24:46;;;;;;;3.47;3.15;;;;;;;6.94;100.00;95699.78;5007964;28;25005;-71
2022/11/05 04:27:13;;;;;;;3.45;2.50;;;;;;;6.94;100.00;95704.94;5011004;28;20785;-71
2022/11/05 04:32:32;;;;;;;1.20;1.00;;;;;;;6.86;100.00;95709.66;4983144;28;20732;-71
2022/11/05 04:34:59;;;;;;;2.47;1.20;;;;;;;6.87;100.00;95707.91;5005538;28;24455;-71
2022/11/05 04:37:26;;;;;;;1.55;1.05;;;;;;;6.79;100.00;95714.25;5008656;28;24520;-72
2022/11/05 04:39:52;;;;;;;4.10;3.35;;;;;;;6.77;100.00;95705.75;5010811;28;20778;-72
2022/11/05 04:42:19;;;;;;;2.15;1.63;;;;;;;6.90;100.00;95713.72;5004816;28;24436;-72
2022/11/05 04:44:45;;;;;;;1.80;1.42;;;;;;;6.94;100.00;95710.09;5006191;28;24432;-72
2022/11/05 04:47:12;;;;;;;1.27;0.98;;;;;;;6.99;100.00;95720.16;5003398;28;20777;-72
2022/11/05 04:49:38;;;;;;;0.90;0.70;;;;;;;6.98;100.00;95719.34;5003325;28;24997;-72
2022/11/05 04:52:06;;;;;;;2.40;0.70;;;;;;;6.90;100.00;95711.16;5004022;28;24437;-72
2022/11/05 04:54:33;;;;;;;1.10;1.00;;;;;;;6.97;100.00;95716.81;5001349;28;24537;-72
2022/11/05 04:57:00;;;;;;;1.13;0.93;;;;;;;6.97;100.00;95714.25;5003281;28;24432;-71
2022/11/05 04:59:26;;;;;;;2.08;1.45;;;;;;;6.93;100.00;95723.84;5010143;28;24448;-71
2022/11/05 05:01:53;;;;;;;5.43;4.60;;;;;;;6.88;100.00;95720.69;5005366;28;25261;-71
2022/11/05 05:04:19;;;;;;;2.78;2.40;;;;;;;7.00;100.00;95725.22;5003000;28;24439;-71
2022/11/05 05:06:46;;;;;;;1.05;0.75;;;;;;;7.05;100.00;95731.91;5005953;28;24803;-72
2022/11/05 05:09:14;;;;;;;2.53;0.82;;;;;;;7.07;100.00;95738.63;5005547;28;24448;-74
2022/11/05 05:11:40;;;;;;;1.05;0.75;;;;;;;7.11;100.00;95735.00;5000027;28;25017;-73
2022/11/05 05:14:07;;;;;;;0.80;0.63;;;;;;;7.13;100.00;95737.50;5004744;28;24452;-72
2022/11/05 05:16:33;;;;;;;0.90;0.70;;;;;;;7.18;100.00;95732.94;5007010;28;24444;-72
2022/11/05 05:19:00;;;;;;;0.98;0.65;;;;;;;7.14;100.00;95732.28;5008652;28;24441;-73
2022/11/05 05:21:37;;;;;;;1.25;1.05;;;;;;;7.11;100.00;95737.56;5008744;28;24437;-72
2022/11/05 05:24:07;;;;;;;0.80;0.63;;;;;;;7.10;100.00;95735.91;5004478;28;24467;-73
2022/11/05 05:26:35;;;;;;;1.23;1.03;;;;;;;7.13;100.00;95743.50;5007807;28;20775;-73
2022/11/05 05:29:02;;;;;;;1.50;1.40;;;;;;;7.11;100.00;95750.44;5005086;28;20813;-72
2022/11/05 05:31:28;;;;;;;1.95;1.40;;;;;;;7.16;100.00;95750.25;5007448;28;25024;-73
2022/11/05 05:33:55;;;;;;;1.35;1.15;;;;;;;7.20;100.00;95747.44;5004798;28;20775;-73
2022/11/05 05:36:22;;;;;;;1.60;1.23;;;;;;;7.15;100.00;95748.56;5001959;28;24455;-72
2022/11/05 05:38:49;;;;;;;1.77;1.07;;;;;;;7.12;100.00;95759.88;5005847;28;25002;-73
2022/11/05 05:41:17;;;;;;;0.85;0.82;;;;;;;7.05;100.00;95760.25;5007508;28;24432;-73
2022/11/05 05:43:45;;;;;;;1.45;1.10;;;;;;;6.98;100.00;95765.69;4998767;28;24455;-71
2022/11/05 05:46:13;;;;;;;1.48;1.00;;;;;;;6.90;100.00;95769.53;5006962;28;24428;-73
2022/11/05 05:48:41;;;;;;;1.30;1.00;;;;;;;6.89;100.00;95763.53;5006995;28;24433;-73
2022/11/05 05:51:09;;;;;;;0.98;0.80;;;;;;;6.96;100.00;95770.06;5006971;28;24989;-72
2022/11/05 05:53:35;;;;;;;1.00;0.90;;;;;;;6.95;100.00;95780.44;5007482;28;24508;-73
2022/11/05 05:56:02;;;;;;;0.85;0.60;;;;;;;6.98;100.00;95773.41;5006431;28;24510;-73
2022/11/05 05:58:32;;;;;;;0.95;0.60;;;;;;;6.93;100.00;95775.34;5008393;28;24436;-73
2022/11/05 06:01:02;;;;;;;4.72;0.65;;;;;;;6.94;100.00;95769.31;5006450;28;24444;-72
2022/11/05 06:03:29;;;;;;;0.60;0.50;;;;;;;7.00;100.00;95778.47;5008103;28;24990;-72
2022/11/05 06:06:00;;;;;;;1.05;0.90;;;;;;;7.00;100.00;95779.28;4995405;28;24428;-73
2022/11/05 06:08:27;;;;;;;1.38;1.20;;;;;;;7.04;100.00;95790.28;5006594;28;24448;-73
2022/11/05 06:10:53;;;;;;;2.60;1.30;;;;;;;7.06;100.00;95792.81;5006755;28;24436;-73
2022/11/05 06:13:20;;;;;;;2.05;1.40;;;;;;;7.03;100.00;95796.34;5008742;28;24435;-73
2022/11/05 06:15:46;;;;;;;1.50;1.40;;;;;;;6.98;100.00;95801.72;5007782;28;24459;-73
2022/11/05 06:18:14;;;;;;;1.60;1.08;;;;;;;6.98;100.00;95806.03;5009831;28;24997;-73
2022/11/05 06:20:40;;;;;;;1.92;1.20;;;;;;;6.85;100.00;95810.94;5005396;28;20779;-72
2022/11/05 06:23:07;;;;;;;1.48;1.10;;;;;;;6.92;100.00;95814.88;5009205;28;24444;-72
2022/11/05 06:25:34;;;;;;;2.58;1.40;;;;;;;6.99;100.00;95823.16;5005328;28;24432;-72
2022/11/05 06:28:00;;;;;;;2.20;1.50;;;;;;;6.78;100.00;95827.56;5009265;28;24439;-72
2022/11/05 06:30:27;;;;;;;1.93;1.63;;;;;;;6.65;100.00;95832.47;5005642;28;24904;-72
2022/11/05 06:32:53;;;;;;;2.07;1.70;;;;;;;6.58;100.00;95828.50;5008786;28;24435;-72
2022/11/05 06:35:21;;;;;;;3.27;1.80;;;;;;;6.56;100.00;95827.72;5006147;28;24510;-72
2022/11/05 06:37:48;;;;;;;2.28;1.73;;;;;;;6.52;100.00;95837.31;5009605;28;20812;-72
2022/11/05 06:40:15;;;;;;;3.13;2.10;;;;;;;6.60;100.00;95843.88;5006601;28;24448;-72
2022/11/05 06:42:41;;;;;;;2.08;1.83;;;;;;;6.49;100.00;95836.66;5000726;28;24436;-71
2022/11/05 06:45:09;;;;;;;4.82;2.58;;;;;;;6.52;100.00;95852.75;5006495;28;24463;-71
2022/11/05 06:47:35;;;;;;;3.33;2.60;;;;;;;6.53;100.00;95854.44;5004463;28;20774;-73
2022/11/05 06:50:02;;;;;;;3.65;2.97;;;;;;;6.43;100.00;95855.78;5007463;28;24433;-73
2022/11/05 06:52:30;;;;;;;5.68;3.47;;;;;;;6.40;100.00;95863.63;5004623;28;25000;-72
2022/11/05 06:54:57;;;;;;;21.45;12.38;;;;;;;6.39;100.00;95863.69;5007377;28;20856;-72
2022/11/05 06:57:23;;;;;;;18.17;10.43;;;;;;;6.38;100.00;95867.16;5004886;28;24436;-73
2022/11/05 06:59:50;;;;;;;4.35;3.70;;;;;;;6.40;100.00;95873.06;5007793;28;24471;-72
2022/11/05 07:02:17;;;;;;;13.65;10.85;;;;;;;6.37;100.00;95879.19;5006095;28;24440;-72
2022/11/05 07:04:43;;;;;;;9.82;8.10;;;;;;;6.33;100.00;95879.41;5007897;28;24469;-72
2022/11/05 07:07:10;;;;;;;14.98;12.65;;;;;;;6.34;100.00;95883.63;5001898;28;25013;-72
2022/11/05 07:09:41;;;;;;;39.90;31.58;;;;;;;6.35;100.00;95885.31;5011926;28;24440;-71
2022/11/05 07:12:08;;;;;;;7.00;5.00;;;;;;;6.29;100.00;95896.69;5009722;28;24440;-71
2022/11/05 07:14:35;;;;;;;27.17;20.23;;;;;;;6.29;100.00;95888.97;5011953;28;24436;-72
2022/11/05 07:17:01;;;;;;;4.03;3.63;;;;;;;6.26;100.00;95899.41;5009358;28;24811;-72
2022/11/05 07:19:27;;;;;;;8.15;5.22;;;;;;;6.30;100.00;95896.66;5012654;28;24439;-72
2022/11/05 07:21:54;;;;;;;2.92;2.70;;;;;;;6.25;100.00;95906.28;5009993;28;24452;-72
2022/11/05 07:24:20;;;;;;;2.75;2.55;;;;;;;6.20;100.00;95907.41;5012196;28;24428;-71
2022/11/05 07:26:48;;;;;;;2.53;2.33;;;;;;;6.22;100.00;95913.28;5009795;28;24429;-72
2022/11/05 07:29:15;;;;;;;3.25;2.45;;;;;;;6.21;100.00;95917.59;5012832;28;24994;-72
2022/11/05 07:31:41;;;;;;;3.60;2.50;;;;;;;6.19;100.00;95922.00;5009566;28;24429;-72
2022/11/05 07:34:08;;;;;;;4.22;2.55;;;;;;;6.15;100.00;95928.16;5012388;28;25005;-72
2022/11/05 07:36:38;;;;;;;3.40;2.50;;;;;;;6.12;100.00;95924.88;5007433;28;24524;-72
2022/11/05 07:39:04;;;;;;;3.20;2.53;;;;;;;6.16;100.00;95939.31;4999656;28;24527;-72
2022/11/05 07:41:31;;;;;;;5.45;2.05;;;;;;;6.14;100.00;95951.38;4999281;28;24429;-73
2022/11/05 07:43:59;;;;;;;2.45;2.25;;;;;;;6.14;100.00;95956.50;5012214;28;24440;-73
2022/11/05 07:46:25;;;;;;;4.10;2.72;;;;;;;6.09;100.00;95950.75;5006141;28;24455;-73
2022/11/05 07:48:52;;;;;;;2.40;2.10;;;;;;;6.04;100.00;95959.50;5004258;28;24447;-72
2022/11/05 07:51:18;;;;;;;3.28;2.10;;;;;;;6.12;100.00;95969.44;5007574;28;24448;-72
2022/11/05 07:53:47;;;;;;;2.58;2.38;;;;;;;6.08;100.00;95960.16;5010814;28;24977;-72
2022/11/05 07:56:13;;;;;;;3.17;2.10;;;;;;;6.15;100.00;95971.03;5007994;28;24546;-72
2022/11/05 07:58:40;;;;;;;2.80;2.10;;;;;;;6.24;100.00;95965.53;5011009;28;24437;-72
2022/11/05 08:01:08;;;;;;;3.00;2.20;;;;;;;6.26;100.00;95956.81;5008059;28;24436;-72
2022/11/05 08:03:35;;;;;;;2.33;1.90;;;;;;;6.26;100.00;95963.69;5010742;28;24436;-72
2022/11/05 08:06:01;;;;;;;3.30;2.10;;;;;;;6.29;100.00;95972.13;5008061;28;24437;-73
2022/11/05 08:08:28;;;;;;;2.00;1.90;;;;;;;6.25;100.00;95974.91;5011237;28;24439;-72
2022/11/05 08:10:54;;;;;;;3.08;2.30;;;;;;;6.27;100.00;95971.38;5003594;28;25114;-72
2022/11/05 08:13:21;;;;;;;2.50;2.20;;;;;;;6.40;100.00;95974.25;5007849;28;24436;-72
2022/11/05 08:15:47;;;;;;;2.78;2.13;;;;;;;6.54;100.00;95983.94;5003563;28;24459;-72
2022/11/05 08:18:17;;;;;;;1.90;1.67;;;;;;;6.41;100.00;95983.63;5011494;28;24480;-72
2022/11/05 08:20:45;;;;;;;3.70;2.40;;;;;;;6.46;100.00;95983.44;5004020;28;24447;-72
2022/11/05 08:23:11;;;;;;;2.17;2.08;;;;;;;6.39;100.00;95982.88;5010793;28;20770;-72
2022/11/05 08:25:38;;;;;;;3.70;2.05;;;;;;;6.39;100.00;95989.75;5008280;28;24425;-72
2022/11/05 08:28:08;;;;;;;2.20;2.00;;;;;;;6.39;100.00;95995.72;5005020;28;24520;-72
2022/11/05 08:30:35;;;;;;;2.20;2.00;;;;;;;6.36;100.00;95988.13;5008024;28;24461;-72
2022/11/05 08:33:04;;;;;;;4.38;2.28;;;;;;;6.39;100.00;96003.44;5010354;28;25263;-72
2022/11/05 08:35:33;;;;;;;1.92;1.83;;;;;;;6.52;100.00;96002.00;5006578;28;24452;-72
2022/11/05 08:38:01;;;;;;;2.17;1.98;;;;;;;6.50;100.00;96006.41;5011201;28;24435;-72
2022/11/05 08:40:29;;;;;;;7.22;2.47;;;;;;;6.51;100.00;96000.34;5008706;28;24884;-72
2022/11/05 08:42:57;;;;;;;2.90;2.60;;;;;;;6.61;100.00;95998.22;5010909;28;24444;-72
2022/11/05 08:45:23;;;;;;;2.40;2.20;;;;;;;6.68;100.00;96009.09;5005626;28;25014;-72
2022/11/05 08:47:50;;;;;;;2.50;2.03;;;;;;;6.78;100.00;96003.44;5011380;28;24487;-72
2022/11/05 08:50:16;;;;;;;2.28;2.03;;;;;;;6.65;100.00;95998.91;5008863;28;24547;-72
2022/11/05 08:52:44;;;;;;;2.30;1.90;;;;;;;6.79;100.00;96006.88;5002895;28;24431;-72
2022/11/05 08:55:11;;;;;;;2.03;1.70;;;;;;;6.79;100.00;96012.03;5008205;28;24529;-72
2022/11/05 08:57:37;;;;;;;2.55;2.17;;;;;;;6.79;100.00;96018.00;5007923;28;24444;-72
2022/11/05 09:00:05;;;;;;;2.50;2.30;;;;;;;6.80;100.00;96013.69;5008786;28;24468;-72
2022/11/05 09:02:31;;;;;;;2.40;2.20;;;;;;;6.75;100.00;96005.34;5001649;28;24443;-72
2022/11/05 09:04:58;;;;;;;2.40;2.20;;;;;;;6.91;100.00;96019.19;5006271;28;25006;-72
2022/11/05 09:07:24;;;;;;;2.67;2.47;;;;;;;7.03;100.00;96012.66;5009759;28;24439;-72
2022/11/05 09:09:52;;;;;;;3.10;2.75;;;;;;;7.21;100.00;96013.56;5005009;28;24448;-72
2022/11/05 09:12:18;;;;;;;4.35;2.47;;;;;;;7.44;100.00;96020.25;5010472;28;24433;-72
2022/11/05 09:14:45;;;;;;;3.67;2.72;;;;;;;7.44;100.00;96025.41;5006196;28;24439;-72
2022/11/05 09:17:16;;;;;;;3.60;2.47;;;;;;;7.14;100.00;96020.75;5010664;28;24471;-72
2022/11/05 09:19:42;;;;;;;3.22;2.35;;;;;;;7.09;100.00;96027.84;5004380;28;24541;-72
2022/11/05 09:22:11;;;;;;;2.75;2.50;;;;;;;7.00;100.00;96028.25;5010782;28;24433;-72
2022/11/05 09:24:38;;;;;;;3.75;2.55;;;;;;;6.88;100.00;96023.66;5003638;28;20783;-72
2022/11/05 09:27:06;;;;;;;3.15;2.55;;;;;;;6.76;100.00;96017.31;5010005;28;24428;-72
2022/11/05 09:29:32;;;;;;;3.85;3.25;;;;;;;6.76;100.00;96028.44;5003983;28;25286;-72
2022/11/05 09:31:59;;;;;;;3.97;3.00;;;;;;;6.82;100.00;96032.47;5004328;28;24432;-72
2022/11/05 09:34:25;;;;;;;4.40;3.83;;;;;;;6.75;100.00;96028.50;5004133;28;24989;-72
2022/11/05 09:36:52;;;;;;;11.20;10.07;;;;;;;6.69;100.00;96032.16;5009222;28;24480;-72
2022/11/05 09:39:18;;;;;;;8.07;7.10;;;;;;;6.71;100.00;96034.66;5005715;28;24451;-72
2022/11/05 09:41:47;;;;;;;13.57;10.93;;;;;;;6.66;100.00;96039.19;5008695;28;24435;-72
2022/11/05 09:44:20;;;;;;;4.88;4.40;;;;;;;6.69;100.00;96047.63;5005802;28;24442;-72
2022/11/05 09:46:59;;;;;;;8.30;2.95;;;;;;;6.64;100.00;96048.72;5105760;27;24397;-72
2022/11/05 09:49:29;;;;;;;4.13;3.20;;;;;;;6.68;100.00;96053.69;5101038;28;24525;-73
2022/11/05 09:51:58;;;;;;;6.47;3.45;;;;;;;6.67;100.00;96056.28;5099514;28;24430;-72
2022/11/05 09:54:26;;;;;;;3.40;2.88;;;;;;;6.68;100.00;96060.56;5097047;28;25002;-72
2022/11/05 09:56:53;;;;;;;4.00;3.60;;;;;;;6.66;100.00;96064.94;5092216;28;24426;-72
2022/11/05 09:59:24;;;;;;;3.92;3.55;;;;;;;6.65;100.00;96063.25;5098130;28;24434;-73
2022/11/05 10:01:55;;;;;;;3.97;3.58;;;;;;;6.69;100.00;96068.22;5105021;28;24432;-73
2022/11/05 10:04:25;;;;;;;3.45;3.15;;;;;;;6.61;100.00;96072.84;5097267;28;24430;-73
2022/11/05 10:06:57;;;;;;;3.63;3.33;;;;;;;6.67;100.00;96071.75;5104670;28;24446;-72
2022/11/05 10:09:28;;;;;;;4.90;3.60;;;;;;;6.69;100.00;96069.94;5101617;28;24444;-72
2022/11/05 10:11:58;;;;;;;6.63;3.85;;;;;;;6.73;100.00;96074.91;5093394;28;20767;-73
2022/11/05 10:14:28;;;;;;;4.70;4.30;;;;;;;6.88;100.00;96082.88;5097007;28;24441;-73
2022/11/05 10:17:00;;;;;;;4.65;4.15;;;;;;;6.82;100.00;96081.38;5093200;28;24440;-73
2022/11/05 10:19:36;;;;;;;5.57;4.95;;;;;;;6.94;100.00;96082.63;5101917;28;24835;-73
2022/11/05 10:22:10;;;;;;;16.25;14.00;;;;;;;6.91;100.00;96081.00;5106696;28;20782;-72
2022/11/05 10:24:38;;;;;;;6.40;5.70;;;;;;;6.99;100.00;96081.50;5101901;28;21309;-73
2022/11/05 10:27:06;;;;;;;5.68;5.07;;;;;;;7.01;100.00;96091.75;5106076;28;24429;-73
2022/11/05 10:29:34;;;;;;;5.10;4.20;;;;;;;6.96;100.00;96093.66;5097284;28;24434;-73
2022/11/05 10:32:04;;;;;;;5.28;4.40;;;;;;;6.99;100.00;96091.78;5103343;28;24814;-72
2022/11/05 10:34:35;;;;;;;5.78;5.05;;;;;;;7.00;100.00;96093.47;5097589;28;24483;-72
2022/11/05 10:37:02;;;;;;;4.45;4.05;;;;;;;7.01;100.00;96096.91;5097570;28;24418;-72
2022/11/05 10:39:31;;;;;;;5.55;4.97;;;;;;;6.94;100.00;96101.47;5097586;28;24438;-72
2022/11/05 10:42:30;;;;;;;5.07;4.43;;;;;;;7.01;100.00;96099.47;5097450;28;24437;-73
2022/11/05 10:45:05;;;;;;;5.30;4.70;;;;;;;7.00;100.00;96101.19;5099305;28;24452;-72
2022/11/05 10:47:55;;;;;;;6.50;4.72;;;;;;;7.00;100.00;96102.91;5119295;28;24436;-72
2022/11/05 10:50:25;;;;;;;4.82;4.40;;;;;;;6.96;100.00;96107.38;5119645;28;24440;-73
2022/11/05 10:52:57;;;;;;;4.90;4.35;;;;;;;6.96;100.00;96106.53;5113917;28;24430;-73
2022/11/05 10:55:26;;;;;;;5.35;4.47;;;;;;;7.02;100.00;96101.13;5122388;28;24429;-73
2022/11/05 10:57:53;;;;;;;6.25;4.80;;;;;;;6.95;100.00;96103.13;5109263;28;24665;-73
2022/11/05 11:00:22;;;;;;;5.55;4.35;;;;;;;6.99;100.00;96102.09;5112180;28;24445;-73
2022/11/05 11:02:51;;;;;;;6.70;4.80;;;;;;;7.00;100.00;96108.06;5093506;28;24440;-73
2022/11/05 11:05:25;;;;;;;5.50;4.13;;;;;;;6.93;100.00;96110.06;5107646;28;24449;-73
2022/11/05 11:08:18;;;;;;;5.65;4.40;;;;;;;6.96;100.00;96107.38;5093317;28;24979;-73
2022/11/05 11:10:50;;;;;;;6.50;5.63;;;;;;;6.96;100.00;96109.13;5094271;28;24441;-73
2022/11/05 11:13:20;;;;;;;5.80;4.85;;;;;;;6.95;100.00;96107.44;5096036;28;24422;-72
2022/11/05 11:15:49;;;;;;;5.45;4.65;;;;;;;6.97;100.00;96106.50;5101286;28;24487;-72
2022/11/05 11:18:29;;;;;;;5.70;4.47;;;;;;;6.94;100.00;96111.75;5103058;28;24979;-73
2022/11/05 11:21:06;;;;;;;4.15;3.58;;;;;;;6.98;100.00;96108.16;5096393;28;24979;-72
2022/11/05 11:23:37;;;;;;;3.25;2.65;;;;;;;6.94;100.00;96114.34;5094432;28;24426;-73
2022/11/05 11:26:05;;;;;;;5.70;3.88;;;;;;;7.05;100.00;96113.06;5102987;28;24454;-73
2022/11/05 11:28:34;;;;;;;4.23;3.43;;;;;;;7.03;100.00;96123.41;5109265;28;24514;-73
2022/11/05 11:31:06;;;;;;;4.72;3.85;;;;;;;7.07;100.00;96118.94;5108328;28;24445;-73
2022/11/05 11:33:34;;;;;;;6.70;5.38;;;;;;;7.05;100.00;96119.03;5111106;28;24440;-73
2022/11/05 11:36:02;;;;;;;6.72;4.53;;;;;;;7.05;100.00;96115.63;5103280;28;20760;-72
2022/11/05 11:38:31;;;;;;;7.22;4.47;;;;;;;7.00;100.00;96110.66;5099645;28;24784;-73
2022/11/05 11:41:05;;;;;;;5.65;4.60;;;;;;;7.15;100.00;96104.00;5102267;28;24422;-72
2022/11/05 11:43:36;;;;;;;4.70;4.30;;;;;;;7.19;100.00;96103.81;5102929;28;24489;-73
2022/11/05 11:46:04;;;;;;;5.38;3.85;;;;;;;7.21;100.00;96104.56;5104697;28;24445;-73
2022/11/05 11:48:34;;;;;;;5.20;3.90;;;;;;;7.24;100.00;96108.75;5099674;28;24583;-73
2022/11/05 11:51:18;;;;;;;4.10;3.30;;;;;;;7.28;100.00;96113.69;5105354;28;24430;-73
2022/11/05 11:53:48;;;;;;;5.82;3.70;;;;;;;7.32;100.00;96114.41;5091627;28;24491;-72
2022/11/05 11:56:17;;;;;;;5.15;4.10;;;;;;;7.34;100.00;96112.59;5099333;28;20764;-72
2022/11/05 11:58:46;;;;;;;5.27;3.57;;;;;;;7.34;100.00;96115.19;5092185;28;24529;-72
2022/11/05 12:01:41;;;;;;;4.47;3.58;;;;;;;7.39;100.00;96113.22;5098187;28;25005;-73
2022/11/05 12:04:19;;;;;;;6.40;4.28;;;;;;;7.39;100.00;96120.97;5097248;28;24460;-73
2022/11/05 12:06:57;;;;;;;5.60;4.40;;;;;;;7.43;100.00;96116.50;5088827;28;20781;-73
2022/11/05 12:09:37;;;;;;;7.65;4.47;;;;;;;7.37;100.00;96115.03;5105557;28;24437;-73
2022/11/05 12:12:10;;;;;;;6.17;4.30;;;;;;;7.35;100.00;96114.28;5109734;28;20807;-73
2022/11/05 12:14:48;;;;;;;8.18;4.35;;;;;;;7.31;100.00;96107.59;5101681;28;24441;-73
2022/11/05 12:17:27;;;;;;;4.50;3.70;;;;;;;7.39;100.00;96110.66;5108586;28;25002;-73
2022/11/05 12:20:07;;;;;;;7.50;3.15;;;;;;;7.45;100.00;96110.38;5093211;28;24460;-73
2022/11/05 12:22:54;;;;;;;7.90;4.18;;;;;;;7.54;100.00;96101.38;5107571;28;24437;-72
2022/11/05 12:25:27;;;;;;;4.65;3.10;;;;;;;7.63;100.00;96103.53;5103590;28;24436;-73